createdAt,value
2018-11-04T00:00:17.896Z,45.67
2018-11-04T00:02:45.516Z,52.97
2018-11-04T00:05:12.694Z,57.03
2018-11-04T00:07:39.804Z,49.33
2018-11-04T00:10:07.929Z,49.27
2018-11-04T00:12:35.053Z,46.57
2018-11-04T00:15:02.529Z,54.10
2018-11-04T00:17:29.627Z,47.43
2018-11-04T00:19:56.697Z,51.83
2018-11-04T00:22:23.794Z,50.93
2018-11-04T00:24:52.368Z,52.50
2018-11-04T00:27:19.431Z,46.57
2018-11-04T00:29:46.598Z,51.00
2018-11-04T00:32:13.588Z,51.07
2018-11-04T00:34:40.658Z,49.00
2018-11-04T00:37:08.413Z,45.30
2018-11-04T00:39:35.647Z,51.47
2018-11-04T00:42:02.671Z,47.80
2018-11-04T00:44:29.735Z,47.13
2018-11-04T00:46:56.921Z,53.77
2018-11-04T00:49:23.990Z,52.50
2018-11-04T00:51:51.093Z,55.83
2018-11-04T00:54:18.141Z,60.17
2018-11-04T00:56:45.206Z,48.83
2018-11-04T00:59:12.353Z,50.27
2018-11-04T01:01:39.396Z,55.33
2018-11-04T01:04:06.484Z,47.50
2018-11-04T01:06:33.812Z,50.07
2018-11-04T01:09:00.925Z,53.23
2018-11-04T01:11:27.928Z,52.07
2018-11-04T01:13:55.040Z,48.37
2018-11-04T01:16:22.192Z,50.33
2018-11-04T01:18:49.344Z,48.60
2018-11-04T01:21:16.716Z,50.00
2018-11-04T01:23:43.753Z,51.93
2018-11-04T01:26:10.829Z,50.67
2018-11-04T01:28:37.875Z,48.67
2018-11-04T01:31:04.996Z,57.77
2018-11-04T01:33:32.019Z,60.67
2018-11-04T01:35:59.400Z,44.27
2018-11-04T01:38:26.527Z,47.70
2018-11-04T01:40:53.573Z,50.33
2018-11-04T01:43:21.511Z,51.63
2018-11-04T01:45:48.531Z,41.90
2018-11-04T01:48:15.551Z,56.07
2018-11-04T01:50:42.916Z,54.73
2018-11-04T01:53:09.960Z,54.00
2018-11-04T01:55:36.972Z,50.27
2018-11-04T01:58:04.046Z,51.97
2018-11-04T02:00:31.064Z,54.87
2018-11-04T02:02:58.104Z,50.47
2018-11-04T02:05:25.534Z,55.33
2018-11-04T02:07:52.628Z,54.47
2018-11-04T02:10:19.651Z,58.87
2018-11-04T02:12:46.965Z,51.77
2018-11-04T02:15:14.008Z,48.30
2018-11-04T02:17:41.180Z,57.43
2018-11-04T02:20:09.779Z,55.33
2018-11-04T02:22:37.008Z,53.00
2018-11-04T02:25:04.651Z,53.10
2018-11-04T02:27:31.816Z,51.40
2018-11-04T02:29:58.851Z,55.47
2018-11-04T02:32:25.868Z,54.73
2018-11-04T02:34:53.348Z,54.17
2018-11-04T02:37:20.380Z,60.93
2018-11-04T02:39:47.412Z,52.73
2018-11-04T02:42:14.519Z,56.43
2018-11-04T02:44:41.544Z,55.10
2018-11-04T02:47:08.669Z,52.20
2018-11-04T02:49:36.000Z,52.03
2018-11-04T02:52:03.204Z,56.23
2018-11-04T02:54:30.227Z,50.20
2018-11-04T02:56:57.472Z,56.20
2018-11-04T02:59:24.522Z,49.93
2018-11-04T03:01:51.595Z,51.80
2018-11-04T03:04:18.631Z,52.30
2018-11-04T03:06:45.691Z,56.20
2018-11-04T03:09:12.864Z,56.33
2018-11-04T03:11:39.920Z,52.67
2018-11-04T03:14:06.968Z,54.30
2018-11-04T03:16:34.007Z,52.57
2018-11-04T03:19:01.116Z,52.50
2018-11-04T03:21:28.161Z,51.90
2018-11-04T03:23:55.189Z,58.57
2018-11-04T03:26:22.255Z,54.33
2018-11-04T03:28:49.398Z,55.23
2018-11-04T03:31:16.433Z,61.53
2018-11-04T03:33:43.747Z,57.93
2018-11-04T03:36:10.786Z,57.07
2018-11-04T03:38:38.584Z,68.03
2018-11-04T03:41:06.087Z,54.53
2018-11-04T03:43:33.100Z,49.17
2018-11-04T03:46:00.120Z,56.03
2018-11-04T03:48:27.196Z,58.20
2018-11-04T03:50:54.505Z,56.23
2018-11-04T03:53:21.527Z,57.07
2018-11-04T03:55:52.109Z,55.87
2018-11-04T03:58:19.137Z,58.97
2018-11-04T04:00:46.232Z,59.37
2018-11-04T04:03:14.016Z,67.93
2018-11-04T04:05:41.820Z,56.33
2018-11-04T04:08:08.864Z,56.90
2018-11-04T04:10:35.960Z,57.30
2018-11-04T04:13:03.053Z,54.20
2018-11-04T04:15:30.105Z,57.10
2018-11-04T04:17:57.473Z,63.80
2018-11-04T04:20:24.500Z,61.60
2018-11-04T04:22:51.556Z,60.20
2018-11-04T04:25:18.608Z,60.47
2018-11-04T04:27:45.627Z,58.73
2018-11-04T04:30:12.667Z,61.17
2018-11-04T04:32:39.912Z,62.87
2018-11-04T04:35:07.832Z,56.00
2018-11-04T04:37:34.856Z,57.17
2018-11-04T04:40:02.225Z,56.90
2018-11-04T04:42:29.243Z,60.23
2018-11-04T04:44:56.285Z,56.90
2018-11-04T04:47:23.334Z,60.73
2018-11-04T04:49:50.352Z,71.23
2018-11-04T04:52:17.374Z,61.97
2018-11-04T04:54:44.712Z,64.70
2018-11-04T04:57:11.727Z,74.30
2018-11-04T04:59:38.748Z,66.40
2018-11-04T05:02:06.172Z,60.40
2018-11-04T05:04:33.191Z,59.47
2018-11-04T05:07:00.220Z,59.83
2018-11-04T05:09:27.276Z,68.07
2018-11-04T05:11:54.291Z,56.70
2018-11-04T05:14:21.315Z,64.97
2018-11-04T05:16:48.663Z,61.73
2018-11-04T05:19:15.687Z,61.20
2018-11-04T05:21:42.976Z,65.03
2018-11-04T05:24:10.316Z,65.93
2018-11-04T05:26:37.332Z,60.57
2018-11-04T05:29:04.349Z,60.80
2018-11-04T05:31:31.407Z,57.20
2018-11-04T05:33:58.420Z,61.40
2018-11-04T05:36:25.443Z,66.37
2018-11-04T05:38:52.533Z,71.13
2018-11-04T05:41:19.563Z,65.70
2018-11-04T05:43:46.604Z,65.73
2018-11-04T05:46:13.677Z,74.43
2018-11-04T05:48:40.719Z,71.90
2018-11-04T05:51:07.747Z,73.83
2018-11-04T05:53:38.514Z,69.43
2018-11-04T05:56:05.539Z,69.57
2018-11-04T05:58:32.639Z,67.40
2018-11-04T06:00:59.684Z,97.47
2018-11-04T06:03:26.720Z,69.27
2018-11-04T06:05:53.751Z,71.63
2018-11-04T06:08:21.067Z,65.47
2018-11-04T06:10:48.108Z,72.43
2018-11-04T06:13:15.131Z,67.40
2018-11-04T06:15:42.396Z,68.40
2018-11-04T06:18:09.427Z,73.77
2018-11-04T06:20:36.444Z,65.30
2018-11-04T06:23:03.907Z,71.40
2018-11-04T06:25:30.942Z,66.23
2018-11-04T06:27:57.984Z,67.87
2018-11-04T06:30:25.024Z,64.33
2018-11-04T06:32:52.088Z,76.53
2018-11-04T06:35:19.128Z,61.07
2018-11-04T06:37:46.216Z,59.90
2018-11-04T06:40:13.287Z,64.80
2018-11-04T06:42:40.324Z,77.40
2018-11-04T06:45:07.961Z,64.57
2018-11-04T06:47:35.041Z,66.90
2018-11-04T06:50:02.057Z,71.40
2018-11-04T06:52:29.475Z,71.27
2018-11-04T06:54:57.620Z,72.60
2018-11-04T06:57:24.654Z,85.13
2018-11-04T06:59:51.768Z,65.43
2018-11-04T07:02:18.764Z,66.30
2018-11-04T07:04:45.815Z,76.83
2018-11-04T07:07:12.857Z,69.47
2018-11-04T07:09:39.899Z,77.80
2018-11-04T07:12:06.981Z,70.47
2018-11-04T07:14:34.748Z,74.70
2018-11-04T07:17:01.780Z,80.27
2018-11-04T07:19:28.907Z,78.97
2018-11-04T07:21:56.188Z,74.90
2018-11-04T07:24:23.280Z,71.70
2018-11-04T07:26:50.325Z,76.13
2018-11-04T07:29:17.431Z,74.47
2018-11-04T07:31:44.503Z,74.00
2018-11-04T07:34:11.539Z,84.97
2018-11-04T07:36:39.405Z,77.03
2018-11-04T07:39:07.067Z,73.80
2018-11-04T07:41:34.103Z,76.10
2018-11-04T07:44:01.186Z,79.83
2018-11-04T07:46:28.227Z,79.87
2018-11-04T07:48:55.323Z,83.10
2018-11-04T07:51:22.396Z,78.10
2018-11-04T07:53:49.412Z,82.33
2018-11-04T07:56:16.459Z,84.07
2018-11-04T07:58:44.064Z,85.83
2018-11-04T08:01:11.123Z,84.37
2018-11-04T08:03:38.168Z,87.23
2018-11-04T08:06:05.617Z,87.83
2018-11-04T08:08:32.711Z,88.50
2018-11-04T08:10:59.742Z,91.93
2018-11-04T08:13:30.498Z,88.13
2018-11-04T08:15:57.597Z,88.30
2018-11-04T08:18:24.660Z,88.57
2018-11-04T08:20:52.003Z,88.10
2018-11-04T08:23:19.052Z,104.37
2018-11-04T08:25:46.100Z,107.30
2018-11-04T08:28:13.180Z,98.90
2018-11-04T08:30:40.220Z,104.20
2018-11-04T08:33:07.278Z,101.67
2018-11-04T08:35:34.360Z,104.13
2018-11-04T08:38:01.773Z,106.30
2018-11-04T08:40:28.920Z,99.87
2018-11-04T08:42:56.382Z,100.70
2018-11-04T08:45:23.427Z,106.50
2018-11-04T08:47:50.590Z,100.87
2018-11-04T08:50:17.844Z,101.87
2018-11-04T08:52:44.899Z,103.67
2018-11-04T08:55:11.939Z,106.07
2018-11-04T08:57:39.097Z,106.57
2018-11-04T09:00:07.403Z,107.73
2018-11-04T09:02:34.362Z,93.77
2018-11-04T09:05:01.540Z,99.43
2018-11-04T09:07:28.641Z,102.07
2018-11-04T09:09:55.685Z,96.63
2018-11-04T09:12:23.077Z,109.07
2018-11-04T09:14:50.164Z,103.17
2018-11-04T09:17:17.267Z,104.40
2018-11-04T09:19:44.571Z,101.63
2018-11-04T09:22:11.652Z,103.77
2018-11-04T09:24:38.677Z,97.60
2018-11-04T09:27:05.737Z,103.83
2018-11-04T09:29:32.806Z,96.50
2018-11-04T09:32:00.091Z,109.07
2018-11-04T09:34:27.267Z,98.13
2018-11-04T09:36:54.324Z,107.17
2018-11-04T09:39:21.409Z,101.40
2018-11-04T09:41:48.695Z,112.27
2018-11-04T09:44:15.790Z,110.63
2018-11-04T09:46:42.933Z,110.17
2018-11-04T09:49:10.084Z,100.17
2018-11-04T09:51:37.201Z,115.63
2018-11-04T09:54:04.251Z,101.50
2018-11-04T09:56:31.404Z,89.37
2018-11-04T09:58:58.518Z,99.17
2018-11-04T10:01:25.583Z,94.70
2018-11-04T10:03:52.670Z,96.20
2018-11-04T10:06:19.827Z,99.53
2018-11-04T10:08:47.087Z,94.70
2018-11-04T10:11:14.483Z,105.73
2018-11-04T10:13:41.629Z,95.93
2018-11-04T10:16:08.854Z,101.57
2018-11-04T10:18:36.040Z,89.10
2018-11-04T10:21:03.461Z,102.23
2018-11-04T10:23:30.932Z,93.27
2018-11-04T10:25:58.408Z,98.87
2018-11-04T10:28:25.476Z,95.37
2018-11-04T10:30:52.546Z,98.57
2018-11-04T10:33:19.737Z,101.30
2018-11-04T10:35:47.200Z,96.63
2018-11-04T10:38:14.235Z,107.23
2018-11-04T10:40:41.598Z,104.60
2018-11-04T10:43:08.648Z,101.63
2018-11-04T10:45:35.720Z,99.00
2018-11-04T10:48:02.820Z,103.60
2018-11-04T10:50:29.873Z,108.00
2018-11-04T10:52:58.791Z,103.13
2018-11-04T10:55:27.131Z,107.23
2018-11-04T10:57:54.925Z,106.43
2018-11-04T11:00:27.711Z,107.97
2018-11-04T11:02:54.777Z,97.93
2018-11-04T11:05:21.864Z,103.33
2018-11-04T11:07:49.419Z,102.23
2018-11-04T11:10:16.516Z,108.63
2018-11-04T11:12:43.547Z,108.33
2018-11-04T11:15:26.037Z,103.70
2018-11-04T11:17:53.236Z,121.00
2018-11-04T11:20:21.700Z,125.50
2018-11-04T11:22:50.386Z,115.17
2018-11-04T11:25:17.783Z,103.10
2018-11-04T11:27:44.988Z,103.97
2018-11-04T11:30:12.496Z,111.07
2018-11-04T11:32:40.323Z,111.83
2018-11-04T11:35:07.448Z,118.77
2018-11-04T11:37:34.639Z,115.13
2018-11-04T11:40:01.850Z,115.43
2018-11-04T11:42:29.020Z,120.10
2018-11-04T11:44:56.479Z,113.63
2018-11-04T11:47:23.499Z,111.60
2018-11-04T11:49:50.898Z,111.17
2018-11-04T11:52:18.432Z,113.87
2018-11-04T11:54:45.448Z,106.37
2018-11-04T11:57:12.528Z,110.33
2018-11-04T11:59:39.773Z,116.47
2018-11-04T12:02:06.984Z,110.20
2018-11-04T12:04:34.028Z,112.43
2018-11-04T12:07:01.860Z,115.33
2018-11-04T12:09:29.055Z,119.13
2018-11-04T12:11:56.112Z,117.63
2018-11-04T12:14:23.784Z,112.73
2018-11-04T12:16:50.976Z,112.90
2018-11-04T12:19:18.138Z,114.60
2018-11-04T12:21:45.204Z,115.03
2018-11-04T12:24:12.223Z,114.67
2018-11-04T12:26:39.360Z,117.63
2018-11-04T12:29:06.751Z,127.27
2018-11-04T12:31:34.316Z,116.20
2018-11-04T12:34:01.368Z,102.13
2018-11-04T12:36:28.812Z,120.57
2018-11-04T12:38:55.859Z,122.43
2018-11-04T12:41:22.973Z,115.27
2018-11-04T12:43:50.060Z,110.03
2018-11-04T12:46:17.099Z,111.13
2018-11-04T12:48:44.152Z,117.37
2018-11-04T12:51:11.611Z,107.37
2018-11-04T12:53:38.638Z,113.00
2018-11-04T12:56:05.764Z,119.20
2018-11-04T12:58:33.171Z,104.17
2018-11-04T13:01:00.218Z,114.17
2018-11-04T13:03:27.308Z,115.83
2018-11-04T13:05:54.409Z,130.67
2018-11-04T13:08:21.460Z,114.03
2018-11-04T13:10:48.494Z,121.50
2018-11-04T13:13:15.559Z,123.07
2018-11-04T13:15:42.636Z,121.67
2018-11-04T13:18:09.660Z,119.90
2018-11-04T13:20:37.003Z,123.27
2018-11-04T13:23:04.159Z,114.93
2018-11-04T13:25:31.199Z,123.77
2018-11-04T13:27:58.567Z,106.93
2018-11-04T13:30:25.612Z,113.60
2018-11-04T13:32:52.668Z,121.37
2018-11-04T13:35:19.974Z,124.00
2018-11-04T13:37:46.981Z,116.50
2018-11-04T13:40:14.036Z,112.50
2018-11-04T13:42:41.864Z,106.50
2018-11-04T13:45:09.458Z,118.53
2018-11-04T13:47:36.691Z,120.77
2018-11-04T13:50:04.857Z,124.00
2018-11-04T13:52:31.887Z,115.50
2018-11-04T13:54:58.911Z,136.77
2018-11-04T13:57:26.191Z,120.27
2018-11-04T13:59:53.339Z,115.13
2018-11-04T14:02:20.442Z,119.80
2018-11-04T14:04:48.168Z,142.10
2018-11-04T14:07:15.315Z,143.40
2018-11-04T14:09:42.615Z,128.73
2018-11-04T14:12:09.664Z,132.00
2018-11-04T14:14:36.719Z,131.17
2018-11-04T14:17:04.341Z,123.83
2018-11-04T14:19:31.684Z,127.60
2018-11-04T14:21:58.747Z,115.57
2018-11-04T14:24:25.844Z,119.53
2018-11-04T14:26:53.112Z,122.03
2018-11-04T14:29:20.244Z,119.07
2018-11-04T14:31:47.461Z,126.53
2018-11-04T14:34:14.843Z,132.83
2018-11-04T14:36:42.135Z,137.97
2018-11-04T14:39:10.021Z,141.80
2018-11-04T14:41:37.220Z,128.57
2018-11-04T14:44:04.601Z,125.77
2018-11-04T14:46:31.643Z,138.93
2018-11-04T14:48:59.016Z,127.20
2018-11-04T14:51:26.129Z,145.77
2018-11-04T14:53:53.279Z,133.17
2018-11-04T14:56:24.899Z,137.17
2018-11-04T14:58:52.120Z,139.57
2018-11-04T15:01:19.290Z,136.77
2018-11-04T15:03:46.429Z,139.47
2018-11-04T15:06:13.624Z,155.57
2018-11-04T15:08:40.779Z,149.43
2018-11-04T15:11:08.233Z,161.03
2018-11-04T15:13:35.320Z,150.03
2018-11-04T15:16:02.404Z,151.40
2018-11-04T15:18:30.814Z,147.07
2018-11-04T15:20:57.806Z,145.63
2018-11-04T15:23:24.904Z,149.53
2018-11-04T15:25:52.037Z,132.77
2018-11-04T15:28:19.100Z,147.57
2018-11-04T15:30:46.155Z,139.00
2018-11-04T15:33:13.443Z,151.57
2018-11-04T15:35:40.558Z,138.00
2018-11-04T15:38:07.627Z,148.53
2018-11-04T15:40:34.823Z,155.37
2018-11-04T15:43:01.943Z,151.53
2018-11-04T15:45:29.067Z,154.60
2018-11-04T15:47:56.184Z,148.40
2018-11-04T15:50:23.269Z,152.70
2018-11-04T15:52:50.316Z,150.83
2018-11-04T15:55:17.610Z,150.17
2018-11-04T15:57:44.711Z,165.33
2018-11-04T16:00:12.641Z,162.67
2018-11-04T16:02:39.788Z,140.07
2018-11-04T16:05:07.686Z,143.73
2018-11-04T16:07:34.775Z,175.07
2018-11-04T16:10:01.946Z,219.30
2018-11-04T16:12:29.114Z,190.43
2018-11-04T16:14:56.328Z,184.07
2018-11-04T16:17:23.523Z,179.13
2018-11-04T16:19:50.600Z,161.77
2018-11-04T16:22:17.647Z,175.53
2018-11-04T16:24:45.091Z,180.13
2018-11-04T16:27:12.155Z,167.63
2018-11-04T16:29:39.208Z,178.60
2018-11-04T16:32:06.398Z,177.20
2018-11-04T16:34:33.404Z,181.37
2018-11-04T16:37:00.457Z,171.23
2018-11-04T16:39:27.580Z,167.93
2018-11-04T16:41:54.691Z,169.70
2018-11-04T16:44:22.013Z,161.63
2018-11-04T16:46:49.248Z,189.93
2018-11-04T16:49:16.359Z,174.53
2018-11-04T16:51:43.467Z,174.73
2018-11-04T16:54:10.956Z,178.03
2018-11-04T16:56:38.092Z,173.57
2018-11-04T16:59:06.410Z,163.10
2018-11-04T17:01:34.721Z,165.00
2018-11-04T17:04:01.920Z,161.27
2018-11-04T17:06:29.261Z,150.93
2018-11-04T17:08:56.628Z,166.03
2018-11-04T17:11:23.892Z,153.77
2018-11-04T17:13:51.040Z,163.17
2018-11-04T17:16:18.796Z,160.90
2018-11-04T17:18:45.956Z,157.53
2018-11-04T17:21:13.164Z,167.37
2018-11-04T17:23:41.520Z,162.40
2018-11-04T17:26:08.896Z,172.87
2018-11-04T17:28:36.096Z,169.97
2018-11-04T17:31:03.472Z,158.60
2018-11-04T17:33:30.580Z,149.80
2018-11-04T17:35:57.800Z,148.00
2018-11-04T17:38:25.117Z,141.47
2018-11-04T17:40:52.239Z,166.23
2018-11-04T17:43:19.355Z,152.73
2018-11-04T17:45:46.759Z,154.03
2018-11-04T17:48:13.792Z,146.97
2018-11-04T17:50:40.957Z,159.93
2018-11-04T17:53:08.080Z,141.40
2018-11-04T17:55:35.197Z,151.23
2018-11-04T17:58:02.247Z,157.80
2018-11-04T18:00:29.652Z,147.63
2018-11-04T18:02:56.752Z,147.10
2018-11-04T18:05:23.784Z,139.10
2018-11-04T18:07:51.200Z,157.93
2018-11-04T18:10:18.324Z,137.40
2018-11-04T18:12:45.359Z,154.07
2018-11-04T18:15:13.136Z,127.17
2018-11-04T18:17:40.171Z,128.47
2018-11-04T18:20:07.692Z,132.40
2018-11-04T18:22:35.024Z,148.40
2018-11-04T18:25:02.257Z,139.80
2018-11-04T18:27:29.365Z,141.83
2018-11-04T18:29:56.419Z,153.17
2018-11-04T18:32:23.524Z,130.83
2018-11-04T18:34:50.524Z,134.30
2018-11-04T18:37:17.940Z,133.37
2018-11-04T18:39:45.860Z,129.30
2018-11-04T18:42:12.920Z,129.93
2018-11-04T18:44:40.204Z,144.87
2018-11-04T18:47:07.167Z,121.07
2018-11-04T18:49:34.208Z,129.43
2018-11-04T18:52:01.666Z,139.43
2018-11-04T18:54:28.864Z,118.60
2018-11-04T18:56:55.928Z,144.17
2018-11-04T18:59:23.296Z,129.07
2018-11-04T19:01:50.531Z,148.07
2018-11-04T19:04:17.575Z,134.37
2018-11-04T19:06:44.648Z,115.30
2018-11-04T19:09:11.691Z,113.97
2018-11-04T19:11:39.157Z,107.90
2018-11-04T19:14:08.365Z,110.50
2018-11-04T19:16:35.670Z,106.80
2018-11-04T19:19:02.819Z,112.17
2018-11-04T19:21:30.748Z,100.30
2018-11-04T19:23:57.768Z,109.50
2018-11-04T19:26:24.953Z,110.27
2018-11-04T19:28:52.019Z,105.53
2018-11-04T19:31:19.206Z,94.10
2018-11-04T19:33:46.232Z,102.37
2018-11-04T19:36:13.617Z,101.20
2018-11-04T19:38:40.727Z,102.33
2018-11-04T19:41:07.776Z,101.47
2018-11-04T19:43:35.113Z,110.00
2018-11-04T19:46:02.155Z,110.67
2018-11-04T19:48:29.262Z,107.30
2018-11-04T19:50:56.688Z,111.97
2018-11-04T19:53:24.264Z,112.33
2018-11-04T19:55:51.327Z,102.30
2018-11-04T19:58:18.483Z,111.70
2018-11-04T20:00:45.555Z,113.40
2018-11-04T20:03:12.726Z,110.40
2018-11-04T20:05:40.051Z,106.83
2018-11-04T20:08:07.141Z,113.23
2018-11-04T20:10:34.225Z,123.77
2018-11-04T20:13:07.436Z,114.70
2018-11-04T20:15:34.483Z,111.27
2018-11-04T20:18:06.248Z,110.37
2018-11-04T20:20:33.387Z,119.90
2018-11-04T20:23:00.441Z,109.20
2018-11-04T20:25:33.712Z,117.43
2018-11-04T20:28:00.811Z,98.57
2018-11-04T20:30:27.929Z,101.10
2018-11-04T20:33:03.396Z,111.80
2018-11-04T20:35:30.523Z,102.00
2018-11-04T20:37:57.633Z,91.43
2018-11-04T20:40:30.765Z,84.80
2018-11-04T20:42:57.836Z,85.73
2018-11-04T20:45:25.856Z,93.23
2018-11-04T20:47:58.760Z,96.57
2018-11-04T20:50:31.593Z,71.93
2018-11-04T20:53:08.601Z,98.27
2018-11-04T20:55:41.600Z,82.73
2018-11-04T20:58:09.127Z,97.23
2018-11-04T21:00:36.068Z,86.83
2018-11-04T21:03:03.224Z,88.27
2018-11-04T21:05:31.987Z,90.17
2018-11-04T21:07:59.205Z,85.93
2018-11-04T21:10:26.271Z,91.10
2018-11-04T21:12:53.841Z,93.90
2018-11-04T21:15:20.885Z,77.93
2018-11-04T21:17:48.166Z,93.23
2018-11-04T21:20:15.538Z,83.00
2018-11-04T21:22:42.613Z,84.97
2018-11-04T21:25:09.740Z,88.30
2018-11-04T21:27:37.287Z,83.67
2018-11-04T21:30:06.188Z,86.17
2018-11-04T21:32:33.409Z,79.83
2018-11-04T21:35:00.841Z,85.87
2018-11-04T21:37:28.123Z,86.13
2018-11-04T21:39:55.324Z,81.63
2018-11-04T21:42:23.541Z,92.57
2018-11-04T21:44:50.647Z,83.20
2018-11-04T21:47:17.630Z,93.03
2018-11-04T21:49:44.887Z,83.20
2018-11-04T21:52:12.234Z,93.93
2018-11-04T21:54:42.046Z,90.33
2018-11-04T21:57:09.712Z,94.43
2018-11-04T21:59:37.622Z,89.83
2018-11-04T22:02:05.660Z,89.93
2018-11-04T22:04:33.061Z,100.60
2018-11-04T22:07:00.588Z,97.97
2018-11-04T22:09:27.761Z,98.77
2018-11-04T22:11:55.141Z,97.87
2018-11-04T22:14:22.648Z,94.97
2018-11-04T22:16:49.752Z,104.33
2018-11-04T22:19:17.929Z,107.60
2018-11-04T22:21:45.028Z,104.43
2018-11-04T22:24:12.075Z,108.27
2018-11-04T22:26:39.163Z,100.53
2018-11-04T22:29:06.219Z,112.60
2018-11-04T22:31:33.288Z,110.53
2018-11-04T22:34:00.704Z,120.90
2018-11-04T22:36:27.805Z,116.83
2018-11-04T22:38:54.850Z,117.60
2018-11-04T22:41:21.924Z,110.83
2018-11-04T22:43:49.007Z,119.10
2018-11-04T22:46:16.740Z,118.80
2018-11-04T22:48:44.072Z,110.37
2018-11-04T22:51:11.240Z,106.33
2018-11-04T22:53:38.404Z,109.33
2018-11-04T22:56:05.598Z,107.60
2018-11-04T22:58:32.574Z,114.43
2018-11-04T23:01:01.168Z,109.30
2018-11-04T23:03:28.389Z,108.23
2018-11-04T23:05:55.660Z,111.13
2018-11-04T23:08:22.730Z,107.07
2018-11-04T23:10:50.183Z,119.17
2018-11-04T23:13:17.233Z,112.83
2018-11-04T23:15:44.323Z,118.63
2018-11-04T23:18:11.438Z,108.13
2018-11-04T23:20:38.484Z,111.60
2018-11-04T23:23:05.578Z,112.40
2018-11-04T23:25:32.660Z,123.80
2018-11-04T23:27:59.757Z,118.00
2018-11-04T23:30:26.835Z,114.87
2018-11-04T23:32:53.959Z,112.80
2018-11-04T23:35:21.030Z,120.20
2018-11-04T23:37:48.124Z,119.60
2018-11-04T23:40:15.647Z,120.77
2018-11-04T23:42:42.751Z,119.37
2018-11-04T23:45:11.091Z,129.10
2018-11-04T23:47:38.363Z,122.97
2018-11-04T23:50:06.663Z,116.90
2018-11-04T23:52:33.752Z,122.93
2018-11-04T23:57:34.908Z,130.73
